Airfield :







YOU CAN JOIN US ON...

 
LOGIN :

Register | Disclaimer

   EN    FR    IT 

 









Legend :    VFR   Marginal VFR   IFR   Intensive IFR   Very Intensive IFR
Visi :
Ceiling :
>= 8 km
>= 3000ft
5 to 8 km
1000 to 3000 ft
1500m to 5 km
500 to 1000 ft
800 to 1500m
200 to 500 ft
< 800m
< 200 ft
Symbols :   Thunderstorms  Fog  Heavy snow  Heavy precipitations  Wind > 20 kt







- Airport Elevation : 141 ft
- IATA code : YQI


CYQI - Yarmouth

CURRENT METAR :
  • 181900Z 27004KT 240V310 15SM FEW040 BKN260 23/14 A2996 RMK SC1CI7 SC TR SLP148 DENSITY ALT 1000FT

EXPIRED METARs :
  • 181800Z 29008KT 15SM BKN260 23/16 A2997 RMK CI7 SLP150 DENSITY ALT 1100FT
  • 181700Z 31008KT 15SM BKN260 23/16 A2996 RMK CI7 SLP148 DENSITY ALT 1100FT
  • 181600Z 30008KT 15SM BKN250 23/16 A2996 RMK CI7 SLP148 DENSITY ALT 1100FT

TAF TAF CYQI
Valid from the 18 at 18:00 until the 19 at 06:00 UTC


181742Z 1818/1906 31008KT P6SM BKN240
BECMG 1819/1821 22008KT
BECMG 1822/1824 18005KT
FM190300 15005KT P6SM SCT002
FM190500 08005KT 1/2SM FG VV002 RMK NXT FCST BY 190000Z
CZQM FIR / North America



MET'MAP, your aeronautical weather chart ! - Copyright ORBIFLY December 2007 - Disclaimer

ORBIFLY MET'MAP TEAM :

Programming & Development : Alexandra Zaïnal
Concept & Development : Baudouin d'Aumeries
Co-Development & Prog : Marc-Olivier Méhu
Technical & hardware support : Manuel Goepfert

Contact : metmap@orbifly.com




SOURCES & CREDITS :

   NOAA